Time;durP1;ratioP1;P1;durP2;ratioP2;P2;SDS_P1;SDS_P2;PMS_P1;PMS_P2;Temp;Humidity;BMP_temperature;BMP_pressure;BME280_temperature;BME280_humidity;BME280_pressure;Samples;Min_cycle;Max_cycle;Signal;HPM_P1;HPM_P2
2022/09/17 00:01:07;;;;;;;13.75;3.40;;;;;;;9.80;100.00;101301.66;5081202;28;20031;-55
2022/09/17 00:03:33;;;;;;;14.02;3.25;;;;;;;9.80;100.00;101310.47;5069591;28;20448;-55
2022/09/17 00:06:10;;;;;;;11.95;3.10;;;;;;;9.82;100.00;101313.78;5079792;28;20036;-52
2022/09/17 00:08:37;;;;;;;12.05;3.20;;;;;;;9.78;100.00;101314.22;5079354;28;20035;-55
2022/09/17 00:11:14;;;;;;;11.68;2.85;;;;;;;9.80;100.00;101315.75;5078418;28;20043;-56
2022/09/17 00:13:41;;;;;;;13.20;3.25;;;;;;;9.82;100.00;101316.44;5071175;28;20024;-56
2022/09/17 00:16:07;;;;;;;10.75;3.00;;;;;;;9.82;100.00;101327.03;5066195;28;20483;-56
2022/09/17 00:18:35;;;;;;;13.32;2.97;;;;;;;9.82;100.00;101319.09;5077445;28;20491;-55
2022/09/17 00:21:02;;;;;;;8.93;2.80;;;;;;;9.86;100.00;101329.41;5068917;28;21004;-56
2022/09/17 00:23:27;;;;;;;14.48;3.25;;;;;;;9.87;100.00;101325.78;5075965;28;20029;-56
2022/09/17 00:25:52;;;;;;;12.90;3.00;;;;;;;9.86;100.00;101318.81;5052374;28;20036;-56
2022/09/17 00:28:18;;;;;;;11.95;2.67;;;;;;;9.85;100.00;101322.41;5084395;28;20047;-56
2022/09/17 00:30:44;;;;;;;15.70;3.47;;;;;;;9.85;100.00;101317.13;5068785;28;20068;-55
2022/09/17 00:33:15;;;;;;;16.83;3.25;;;;;;;9.86;99.48;101314.31;5070845;28;20021;-56
2022/09/17 00:35:41;;;;;;;11.57;2.97;;;;;;;9.88;100.00;101324.78;5070162;28;20040;-57
2022/09/17 00:38:07;;;;;;;12.07;2.80;;;;;;;9.90;100.00;101328.13;5085329;28;20034;-54
2022/09/17 00:40:32;;;;;;;14.77;2.85;;;;;;;9.91;100.00;101332.44;5080442;28;20028;-56
2022/09/17 00:42:57;;;;;;;14.52;2.75;;;;;;;9.95;100.00;101333.81;5066104;28;20460;-58
2022/09/17 00:45:23;;;;;;;12.50;2.60;;;;;;;9.95;100.00;101328.53;5075566;28;20044;-56
2022/09/17 00:47:58;;;;;;;17.98;3.03;;;;;;;9.97;100.00;101326.56;5079180;28;20040;-56
2022/09/17 00:50:43;;;;;;;9.88;2.63;;;;;;;9.96;100.00;101319.59;5074992;28;20028;-58
2022/09/17 00:53:19;;;;;;;13.95;2.55;;;;;;;9.95;100.00;101328.53;5077233;28;20123;-56
2022/09/17 00:55:50;;;;;;;12.02;2.78;;;;;;;10.01;100.00;101327.13;5076299;28;20451;-59
2022/09/17 00:58:20;;;;;;;17.95;3.15;;;;;;;9.97;100.00;101329.22;5094945;28;20028;-55
2022/09/17 01:00:46;;;;;;;16.13;2.70;;;;;;;9.97;100.00;101342.47;5080389;28;20035;-59
2022/09/17 01:03:12;;;;;;;10.95;2.45;;;;;;;9.98;100.00;101341.50;5072353;28;20032;-58
2022/09/17 01:05:51;;;;;;;14.43;2.85;;;;;;;9.98;100.00;101333.53;5074945;28;20078;-59
2022/09/17 01:09:02;;;;;;;15.45;2.72;;;;;;;9.98;100.00;101333.53;5083283;28;20040;-58
2022/09/17 01:11:33;;;;;;;15.48;3.10;;;;;;;9.98;100.00;101338.00;5004019;28;20029;-58
2022/09/17 01:14:35;;;;;;;10.80;2.58;;;;;;;10.00;100.00;101342.16;5057276;28;20158;-55
2022/09/17 01:17:15;;;;;;;12.87;2.57;;;;;;;9.99;100.00;101332.56;5087960;28;20067;-56
2022/09/17 01:20:18;;;;;;;13.00;2.70;;;;;;;10.03;100.00;101336.59;5071293;28;20061;-58
2022/09/17 01:23:10;;;;;;;11.18;2.60;;;;;;;9.99;100.00;101332.56;5077281;28;20055;-54
2022/09/17 01:25:49;;;;;;;10.02;2.53;;;;;;;9.99;100.00;101345.81;5073987;28;20056;-56
2022/09/17 01:28:42;;;;;;;11.32;2.63;;;;;;;10.02;100.00;101348.16;5076527;28;20051;-56
2022/09/17 01:31:18;;;;;;;14.90;2.83;;;;;;;10.02;100.00;101356.09;5083044;28;20032;-56
2022/09/17 01:34:07;;;;;;;14.15;2.53;;;;;;;10.03;100.00;101352.50;5074007;28;20036;-56
2022/09/17 01:36:46;;;;;;;11.35;2.90;;;;;;;10.03;100.00;101352.50;5075457;28;20043;-56
2022/09/17 01:39:34;;;;;;;13.60;2.67;;;;;;;10.04;100.00;101356.81;5075626;28;20033;-57
2022/09/17 01:42:09;;;;;;;13.77;2.75;;;;;;;10.02;100.00;101350.78;5071982;28;20050;-56
2022/09/17 01:44:43;;;;;;;14.48;2.80;;;;;;;10.00;100.00;101366.00;5068524;28;20131;-55
2022/09/17 01:47:15;;;;;;;13.40;2.90;;;;;;;9.93;100.00;101362.28;5090042;28;20050;-59
2022/09/17 01:49:41;;;;;;;15.57;3.17;;;;;;;9.96;100.00;101357.53;5077550;28;20046;-56
2022/09/17 01:52:10;;;;;;;15.45;2.95;;;;;;;9.96;100.00;101364.63;5074749;28;20298;-57
2022/09/17 01:54:52;;;;;;;10.80;2.70;;;;;;;9.98;100.00;101362.69;5066663;28;20090;-57
2022/09/17 01:57:24;;;;;;;15.70;2.93;;;;;;;9.98;100.00;101365.34;5088843;28;20038;-56
2022/09/17 01:59:56;;;;;;;11.82;2.70;;;;;;;9.95;100.00;101360.31;5072504;28;20290;-57
2022/09/17 02:02:40;;;;;;;11.73;3.00;;;;;;;9.98;100.00;101365.34;5065264;28;20457;-55
2022/09/17 02:05:11;;;;;;;12.60;2.50;;;;;;;9.92;100.00;101365.91;5073924;28;20119;-56
2022/09/17 02:08:05;;;;;;;16.48;3.22;;;;;;;9.94;100.00;101363.94;5094661;28;20028;-55
2022/09/17 02:10:41;;;;;;;12.15;2.60;;;;;;;9.89;100.00;101360.88;5065616;28;20143;-58
2022/09/17 02:13:25;;;;;;;12.63;2.58;;;;;;;9.82;100.00;101350.88;5073696;28;20044;-54
2022/09/17 02:15:56;;;;;;;11.63;2.95;;;;;;;9.90;100.00;101359.91;5074907;28;20827;-55
2022/09/17 02:18:31;;;;;;;11.55;2.83;;;;;;;9.89;100.00;101355.59;5081601;28;20491;-53
2022/09/17 02:21:07;;;;;;;14.93;2.88;;;;;;;9.88;100.00;101367.16;5069003;28;20063;-56
2022/09/17 02:23:40;;;;;;;14.27;2.72;;;;;;;9.88;100.00;101353.94;5070682;28;20035;-54
2022/09/17 02:26:10;;;;;;;10.98;2.60;;;;;;;9.87;100.00;101357.56;5070695;28;20045;-59
2022/09/17 02:28:47;;;;;;;15.68;2.70;;;;;;;9.90;100.00;101367.84;5087260;28;20761;-56
2022/09/17 02:31:12;;;;;;;15.60;2.60;;;;;;;9.90;100.00;101374.00;5074870;28;20041;-54
2022/09/17 02:33:42;;;;;;;12.50;2.72;;;;;;;9.86;100.00;101369.13;5068689;28;20042;-53
2022/09/17 02:36:08;;;;;;;13.65;2.63;;;;;;;9.89;100.00;101376.78;5079714;28;20040;-57
2022/09/17 02:38:33;;;;;;;10.98;2.70;;;;;;;9.83;100.00;101371.06;5087763;28;20086;-58
2022/09/17 02:41:19;;;;;;;14.57;2.83;;;;;;;9.86;100.00;101374.44;5077983;28;20041;-53
2022/09/17 02:43:59;;;;;;;7.97;2.47;;;;;;;9.81;100.00;101381.00;5070783;28;20064;-58
2022/09/17 02:46:51;;;;;;;16.85;2.60;;;;;;;9.82;100.00;101385.31;5078152;28;20035;-56
2022/09/17 02:49:27;;;;;;;12.07;2.78;;;;;;;9.77;100.00;101384.91;5076542;28;20723;-57
2022/09/17 02:52:04;;;;;;;12.45;2.80;;;;;;;9.78;100.00;101386.56;5079828;28;20127;-58
2022/09/17 02:54:59;;;;;;;12.60;2.42;;;;;;;9.77;100.00;101384.91;5078569;28;20051;-55
2022/09/17 02:57:42;;;;;;;11.93;2.47;;;;;;;9.73;100.00;101386.19;5072633;28;20029;-59
2022/09/17 03:00:18;;;;;;;11.52;2.60;;;;;;;9.69;100.00;101387.44;5069045;28;20570;-58
2022/09/17 03:03:00;;;;;;;11.02;2.40;;;;;;;9.68;100.00;101377.81;5047509;28;20472;-56
2022/09/17 03:05:27;;;;;;;13.27;2.65;;;;;;;9.62;100.00;101378.38;5084885;28;20115;-57
2022/09/17 03:07:57;;;;;;;13.75;2.47;;;;;;;9.64;100.00;101385.22;5083960;28;20046;-57
2022/09/17 03:10:23;;;;;;;10.20;2.35;;;;;;;9.60;100.00;101382.97;5080198;28;20111;-57
2022/09/17 03:12:49;;;;;;;10.52;2.60;;;;;;;9.54;100.00;101369.31;5057889;28;20123;-54
2022/09/17 03:15:14;;;;;;;13.88;2.55;;;;;;;9.54;100.00;101379.09;5078703;28;20031;-57
2022/09/17 03:17:40;;;;;;;10.98;2.55;;;;;;;9.53;100.00;101378.25;5088905;28;20064;-58
2022/09/17 03:20:05;;;;;;;12.50;2.28;;;;;;;9.49;100.00;101382.16;5075550;28;20037;-55
2022/09/17 03:22:31;;;;;;;12.55;2.47;;;;;;;9.47;100.00;101381.44;5078768;28;20043;-55
2022/09/17 03:24:56;;;;;;;12.50;3.03;;;;;;;9.47;100.00;101370.88;5077970;28;20505;-55
2022/09/17 03:27:21;;;;;;;12.45;2.60;;;;;;;9.45;100.00;101374.63;5082952;28;20390;-57
2022/09/17 03:29:47;;;;;;;12.43;2.60;;;;;;;9.47;100.00;101384.09;5075235;28;20891;-55
2022/09/17 03:32:12;;;;;;;11.52;2.38;;;;;;;9.47;100.00;101376.16;5078192;28;20036;-58
2022/09/17 03:34:37;;;;;;;14.38;2.90;;;;;;;9.47;100.00;101370.88;5075257;28;20035;-57
2022/09/17 03:37:02;;;;;;;12.27;2.80;;;;;;;9.45;100.00;101371.97;5082649;28;20031;-58
2022/09/17 03:39:28;;;;;;;14.18;2.45;;;;;;;9.44;100.00;101379.09;5078608;28;20039;-58
2022/09/17 03:41:54;;;;;;;11.43;2.53;;;;;;;9.41;100.00;101374.06;5068751;28;20115;-58
2022/09/17 03:44:21;;;;;;;13.23;2.50;;;;;;;9.40;100.00;101370.59;5080839;28;20056;-54
2022/09/17 03:46:47;;;;;;;11.57;2.30;;;;;;;9.37;100.00;101373.53;5083500;28;20037;-55
2022/09/17 03:49:12;;;;;;;12.35;2.40;;;;;;;9.38;100.00;101374.38;5075127;28;20036;-56
2022/09/17 03:51:37;;;;;;;14.05;2.30;;;;;;;9.36;100.00;101371.84;5072373;28;20036;-56
2022/09/17 03:54:02;;;;;;;16.88;2.50;;;;;;;9.35;100.00;101372.00;5074781;28;20036;-57
2022/09/17 03:56:28;;;;;;;11.40;2.40;;;;;;;9.31;100.00;101378.56;5079695;28;20349;-58
2022/09/17 03:58:58;;;;;;;10.80;2.30;;;;;;;9.31;100.00;101384.66;5068289;28;20044;-56
2022/09/17 04:01:24;;;;;;;12.18;2.47;;;;;;;9.28;100.00;101382.31;5068361;28;20032;-56
2022/09/17 04:03:49;;;;;;;8.98;2.00;;;;;;;9.25;100.00;101380.78;5068389;28;20033;-53
2022/09/17 04:06:15;;;;;;;8.98;1.98;;;;;;;9.25;100.00;101388.72;5073017;28;20185;-55
2022/09/17 04:08:40;;;;;;;13.70;2.40;;;;;;;9.23;99.95;101382.72;5084151;28;20024;-59
2022/09/17 04:11:06;;;;;;;12.90;2.70;;;;;;;9.24;100.00;101383.56;5071248;28;20485;-59
2022/09/17 04:13:32;;;;;;;11.88;2.47;;;;;;;9.22;99.41;101391.63;5077561;28;20028;-57
2022/09/17 04:15:57;;;;;;;11.02;2.08;;;;;;;9.21;99.34;101395.25;5073993;28;20450;-52
2022/09/17 04:18:22;;;;;;;13.85;2.47;;;;;;;9.23;100.00;101397.78;5085447;28;20046;-55
2022/09/17 04:20:48;;;;;;;11.55;2.40;;;;;;;9.20;100.00;101404.19;5068179;28;20033;-55
2022/09/17 04:23:13;;;;;;;12.23;2.47;;;;;;;9.19;99.61;101402.50;5070859;28;20039;-53
2022/09/17 04:25:38;;;;;;;10.20;2.33;;;;;;;9.18;100.00;101395.53;5068135;28;20084;-55
2022/09/17 04:28:04;;;;;;;9.02;2.38;;;;;;;9.19;99.87;101397.22;5080886;28;20751;-58
2022/09/17 04:30:29;;;;;;;11.23;2.63;;;;;;;9.17;99.88;101399.16;5073676;28;20027;-58
2022/09/17 04:32:54;;;;;;;14.75;2.22;;;;;;;9.17;99.97;101399.16;5068765;28;20032;-55
2022/09/17 04:35:20;;;;;;;12.23;2.30;;;;;;;9.15;99.84;101399.31;5069554;28;20028;-55
2022/09/17 04:37:57;;;;;;;11.15;2.13;;;;;;;9.20;100.00;101393.59;5079531;28;20035;-54
2022/09/17 04:40:24;;;;;;;11.70;2.33;;;;;;;9.17;100.00;101404.44;5076239;28;20040;-58
2022/09/17 04:42:58;;;;;;;12.65;2.40;;;;;;;9.22;100.00;101409.34;5079799;28;20040;-59
2022/09/17 04:45:24;;;;;;;11.25;2.40;;;;;;;9.23;100.00;101414.47;5081205;28;20048;-57
2022/09/17 04:47:49;;;;;;;12.80;2.58;;;;;;;9.23;100.00;101411.81;5089582;28;20534;-54
2022/09/17 04:50:19;;;;;;;9.25;2.22;;;;;;;9.22;100.00;101402.22;5074015;28;20044;-56
2022/09/17 04:52:45;;;;;;;9.32;2.40;;;;;;;9.21;100.00;101405.84;5070487;28;20028;-54
2022/09/17 04:55:11;;;;;;;12.13;2.55;;;;;;;9.22;100.00;101396.94;5075800;28;20043;-55
2022/09/17 04:57:37;;;;;;;13.80;2.60;;;;;;;9.22;100.00;101399.56;5082776;28;20636;-54
2022/09/17 05:00:07;;;;;;;8.48;2.40;;;;;;;9.21;100.00;101397.91;5076114;28;20028;-57
2022/09/17 05:02:32;;;;;;;10.02;2.50;;;;;;;9.21;100.00;101405.84;5067555;28;20274;-55
2022/09/17 05:04:58;;;;;;;16.10;2.80;;;;;;;9.23;100.00;101403.88;5077109;28;20491;-54
2022/09/17 05:07:23;;;;;;;14.52;2.50;;;;;;;9.23;100.00;101406.53;5083790;28;20047;-57
2022/09/17 05:09:48;;;;;;;10.43;2.40;;;;;;;9.25;100.00;101407.25;5070795;28;20036;-55
2022/09/17 05:12:14;;;;;;;11.80;2.38;;;;;;;9.22;100.00;101407.50;5073610;28;20395;-55
2022/09/17 05:14:39;;;;;;;7.82;2.15;;;;;;;9.16;100.00;101408.06;5071980;28;20035;-56
2022/09/17 05:17:04;;;;;;;12.75;2.42;;;;;;;9.17;100.00;101415.03;5082510;28;20031;-57
2022/09/17 05:19:29;;;;;;;13.73;2.55;;;;;;;9.15;100.00;101414.34;5083922;28;20037;-55
2022/09/17 05:21:55;;;;;;;11.88;2.70;;;;;;;9.13;100.00;101413.66;5076342;28;20028;-57
2022/09/17 05:24:20;;;;;;;10.20;2.40;;;;;;;9.12;100.00;101418.09;5069988;28;20369;-58
2022/09/17 05:26:45;;;;;;;14.75;2.35;;;;;;;9.11;100.00;101420.88;5076964;28;20031;-55
2022/09/17 05:29:11;;;;;;;17.55;2.70;;;;;;;9.12;100.00;101425.19;5083453;28;20117;-56
2022/09/17 05:31:36;;;;;;;12.32;2.58;;;;;;;9.08;100.00;101431.75;5071978;28;20035;-59
2022/09/17 05:34:01;;;;;;;16.70;2.85;;;;;;;9.08;100.00;101426.44;5072242;28;20119;-55
2022/09/17 05:36:26;;;;;;;12.80;2.80;;;;;;;9.07;100.00;101433.53;5077432;28;20047;-54
2022/09/17 05:38:52;;;;;;;13.00;2.85;;;;;;;9.07;100.00;101435.38;5075102;28;20055;-58
2022/09/17 05:41:17;;;;;;;10.23;2.38;;;;;;;9.04;100.00;101431.19;5078356;28;20480;-56
2022/09/17 05:43:43;;;;;;;14.20;2.45;;;;;;;9.06;100.00;101428.38;5070088;28;20036;-59
2022/09/17 05:46:08;;;;;;;13.68;3.05;;;;;;;9.08;100.00;101426.44;5083029;28;20035;-54
2022/09/17 05:48:34;;;;;;;13.38;2.65;;;;;;;9.07;100.00;101430.06;5081690;28;20483;-56
2022/09/17 05:51:00;;;;;;;11.07;2.25;;;;;;;9.08;100.00;101431.75;5075450;28;20054;-56
2022/09/17 05:53:25;;;;;;;14.55;2.85;;;;;;;9.09;100.00;101433.41;5077667;28;21648;-54
2022/09/17 05:55:55;;;;;;;18.17;2.92;;;;;;;9.09;100.00;101439.53;5079847;28;20162;-54
2022/09/17 05:58:20;;;;;;;12.82;2.50;;;;;;;9.13;100.00;101450.69;5092710;28;20067;-59
2022/09/17 06:00:47;;;;;;;14.38;2.50;;;;;;;9.21;100.00;101453.47;5068088;28;20060;-58
2022/09/17 06:03:15;;;;;;;16.50;3.00;;;;;;;9.23;100.00;101462.09;5076164;28;20065;-56
2022/09/17 06:05:41;;;;;;;10.45;2.50;;;;;;;9.24;100.00;101474.34;5076803;28;20625;-58
2022/09/17 06:08:08;;;;;;;15.38;2.88;;;;;;;9.28;100.00;101475.78;5085536;28;20040;-55
2022/09/17 06:10:37;;;;;;;12.05;3.05;;;;;;;9.30;100.00;101473.00;5075800;28;20036;-53
2022/09/17 06:13:02;;;;;;;13.98;2.45;;;;;;;9.28;100.00;101465.19;5069019;28;20551;-56
2022/09/17 06:15:28;;;;;;;17.65;2.75;;;;;;;9.33;100.00;101461.28;5071861;28;20169;-56
2022/09/17 06:17:53;;;;;;;12.07;2.63;;;;;;;9.32;100.00;101467.56;5085353;28;20040;-54
2022/09/17 06:20:19;;;;;;;13.93;2.47;;;;;;;9.34;100.00;101460.31;5078955;28;20036;-56
2022/09/17 06:22:44;;;;;;;13.43;2.42;;;;;;;9.32;100.00;101468.38;5080840;28;20071;-57
2022/09/17 06:25:10;;;;;;;10.57;2.45;;;;;;;9.33;100.00;101463.94;5074835;28;20040;-56
2022/09/17 06:27:35;;;;;;;11.65;2.50;;;;;;;9.31;100.00;101463.25;5083633;28;20040;-56
2022/09/17 06:30:01;;;;;;;10.45;2.03;;;;;;;9.27;100.00;101467.97;5068234;28;20032;-57
2022/09/17 06:32:27;;;;;;;13.50;2.67;;;;;;;9.21;100.00;101466.72;5065746;28;21042;-57
2022/09/17 06:34:54;;;;;;;10.52;2.45;;;;;;;9.22;100.00;101468.38;5066827;28;20028;-59
2022/09/17 06:37:25;;;;;;;10.85;2.50;;;;;;;9.21;100.00;101474.66;5066146;28;20039;-59
2022/09/17 06:39:51;;;;;;;10.27;2.13;;;;;;;9.22;100.00;101465.72;5070934;28;20043;-59
2022/09/17 06:42:16;;;;;;;12.85;2.78;;;;;;;9.25;100.00;101465.47;5072839;28;20403;-57
2022/09/17 06:44:41;;;;;;;8.43;1.92;;;;;;;9.28;100.00;101467.81;5069942;28;20056;-58
2022/09/17 06:47:07;;;;;;;9.15;2.10;;;;;;;9.32;100.00;101464.91;5072445;28;20120;-57
2022/09/17 06:49:32;;;;;;;13.13;2.38;;;;;;;9.38;100.00;101464.38;5073674;28;20036;-58
2022/09/17 06:51:57;;;;;;;13.57;2.50;;;;;;;9.42;99.75;101465.75;5063814;28;20025;-58
2022/09/17 06:54:23;;;;;;;10.15;2.13;;;;;;;9.43;99.95;101462.16;5066945;28;20068;-59
2022/09/17 06:56:48;;;;;;;6.78;2.05;;;;;;;9.45;99.45;101459.34;5067841;28;20303;-57
2022/09/17 06:59:13;;;;;;;10.65;2.50;;;;;;;9.45;99.49;101454.91;5064116;28;20032;-56
2022/09/17 07:01:38;;;;;;;8.23;2.17;;;;;;;9.44;100.00;101458.53;5065513;28;20068;-59
2022/09/17 07:04:04;;;;;;;8.07;1.90;;;;;;;9.47;99.55;101463.53;5065401;28;20111;-56
2022/09/17 07:06:29;;;;;;;11.10;2.50;;;;;;;9.57;100.00;101466.16;5068655;28;21307;-58
2022/09/17 07:08:54;;;;;;;10.25;2.17;;;;;;;9.70;100.00;101468.53;5066585;28;20024;-59
2022/09/17 07:11:20;;;;;;;11.20;2.00;;;;;;;9.74;99.93;101469.94;5066247;28;20066;-57
2022/09/17 07:13:45;;;;;;;8.50;2.03;;;;;;;9.82;99.90;101475.38;5067588;28;20651;-56
2022/09/17 07:16:11;;;;;;;9.00;2.15;;;;;;;9.88;99.81;101475.78;5069157;28;20040;-59
2022/09/17 07:18:36;;;;;;;9.60;2.05;;;;;;;9.92;98.39;101477.19;5073275;28;20025;-55
2022/09/17 07:21:04;;;;;;;9.60;2.17;;;;;;;9.96;99.09;101471.44;5070443;28;20613;-58
2022/09/17 07:23:31;;;;;;;10.27;2.33;;;;;;;10.07;100.00;101475.75;5052558;28;20040;-56
2022/09/17 07:25:59;;;;;;;10.88;2.22;;;;;;;10.12;98.83;101480.59;5071472;28;20040;-59
2022/09/17 07:28:25;;;;;;;11.90;2.95;;;;;;;10.21;98.01;101484.22;5073587;28;20039;-58
2022/09/17 07:30:51;;;;;;;10.63;2.40;;;;;;;10.31;99.07;101478.91;5073387;28;20064;-57
2022/09/17 07:33:22;;;;;;;11.57;2.72;;;;;;;10.35;97.09;101481.13;5068505;28;20040;-57
2022/09/17 07:36:01;;;;;;;14.93;2.65;;;;;;;10.47;98.31;101486.28;5068859;28;20487;-59
2022/09/17 07:38:28;;;;;;;11.82;2.70;;;;;;;10.51;97.61;101477.03;5072124;28;20036;-56
2022/09/17 07:40:58;;;;;;;12.20;2.38;;;;;;;10.56;97.21;101472.16;5068842;28;20065;-57
2022/09/17 07:43:28;;;;;;;15.25;2.90;;;;;;;10.68;98.33;101464.00;5070221;28;20399;-59
2022/09/17 07:45:55;;;;;;;10.65;2.22;;;;;;;10.75;96.77;101473.03;5069688;28;20037;-59
2022/09/17 07:48:20;;;;;;;9.38;2.38;;;;;;;10.80;95.21;101469.97;5073203;28;20427;-58
2022/09/17 07:50:46;;;;;;;10.23;1.90;;;;;;;10.84;95.36;101472.16;5067988;28;20170;-56
2022/09/17 07:53:11;;;;;;;7.82;2.00;;;;;;;10.86;94.64;101475.50;5070789;28;20031;-57
2022/09/17 07:55:37;;;;;;;9.18;2.00;;;;;;;10.88;92.84;101473.56;5064254;28;20028;-56
2022/09/17 07:58:02;;;;;;;6.35;1.80;;;;;;;10.88;94.09;101473.56;5068381;28;20151;-56
2022/09/17 08:00:28;;;;;;;5.07;1.92;;;;;;;10.81;92.61;101483.06;5060955;28;20035;-59
2022/09/17 08:02:54;;;;;;;7.93;2.10;;;;;;;10.86;93.77;101480.00;5065414;28;20111;-57
2022/09/17 08:05:20;;;;;;;8.77;1.95;;;;;;;10.92;95.32;101478.56;5061989;28;20032;-56
2022/09/17 08:07:53;;;;;;;10.05;2.03;;;;;;;10.97;93.80;101477.13;5065462;28;20036;-57
2022/09/17 08:10:21;;;;;;;8.18;1.80;;;;;;;11.09;94.58;101482.22;5064288;28;20032;-56
2022/09/17 08:12:48;;;;;;;11.95;2.40;;;;;;;11.15;95.10;101474.50;5065086;28;20044;-57
2022/09/17 08:15:14;;;;;;;11.43;2.40;;;;;;;11.17;92.75;101477.00;5063822;28;20544;-56
2022/09/17 08:17:46;;;;;;;8.63;2.10;;;;;;;11.22;94.03;101469.44;5075255;28;20502;-57
2022/09/17 08:20:13;;;;;;;8.85;2.22;;;;;;;11.28;93.21;101479.47;5062854;28;20036;-55
2022/09/17 08:22:39;;;;;;;10.85;2.33;;;;;;;11.33;92.02;101481.66;5067996;28;20032;-55
2022/09/17 08:25:05;;;;;;;9.07;1.80;;;;;;;11.36;89.32;101473.41;5076393;28;20040;-55
2022/09/17 08:27:31;;;;;;;7.93;2.15;;;;;;;11.39;89.27;101477.53;5081698;28;20122;-58
2022/09/17 08:29:57;;;;;;;8.65;2.00;;;;;;;11.38;88.62;101470.56;5062280;28;20233;-60
2022/09/17 08:32:23;;;;;;;8.65;1.90;;;;;;;11.41;90.31;101473.75;5060068;28;20051;-59
2022/09/17 08:34:48;;;;;;;8.80;2.15;;;;;;;11.46;88.37;101477.78;5064619;28;20111;-59
2022/09/17 08:37:13;;;;;;;9.27;2.13;;;;;;;11.50;89.28;101476.50;5073802;28;20115;-58
2022/09/17 08:39:39;;;;;;;10.30;2.00;;;;;;;11.55;89.84;101479.53;5060198;28;20041;-61
2022/09/17 08:42:19;;;;;;;8.45;1.90;;;;;;;11.59;90.42;101480.91;5070267;28;20024;-58
2022/09/17 08:44:46;;;;;;;7.68;2.20;;;;;;;11.64;90.29;101483.94;5060040;28;20068;-59
2022/09/17 08:47:32;;;;;;;6.70;1.80;;;;;;;11.71;89.99;101487.63;5067704;28;20036;-58
2022/09/17 08:50:00;;;;;;;7.13;1.60;;;;;;;11.78;87.43;101492.34;5076329;28;20066;-59
2022/09/17 08:52:52;;;;;;;8.68;1.83;;;;;;;11.85;88.79;101501.38;5061824;28;20090;-59
2022/09/17 08:55:30;;;;;;;6.93;1.80;;;;;;;11.92;87.02;101491.81;5076571;28;20036;-61
2022/09/17 08:58:34;;;;;;;7.97;1.52;;;;;;;12.03;87.39;101496.03;5095577;28;20080;-58
2022/09/17 09:01:22;;;;;;;7.72;1.85;;;;;;;12.15;86.34;101490.50;5070512;28;20320;-57
2022/09/17 09:04:28;;;;;;;6.35;1.67;;;;;;;12.35;87.80;101491.13;5061393;28;20036;-58
2022/09/17 09:07:03;;;;;;;9.43;1.90;;;;;;;12.38;85.34;101490.78;5072990;28;20039;-59
2022/09/17 09:09:36;;;;;;;8.00;2.28;;;;;;;12.37;84.46;101502.44;5069767;28;20044;-59
2022/09/17 09:12:09;;;;;;;6.47;1.70;;;;;;;12.23;81.72;101503.84;5069428;28;20281;-58
2022/09/17 09:14:46;;;;;;;6.72;1.95;;;;;;;12.14;83.38;101505.59;5064220;28;20123;-59
2022/09/17 09:17:12;;;;;;;8.10;1.50;;;;;;;12.01;84.74;101502.50;5070995;28;20025;-58
2022/09/17 09:19:43;;;;;;;7.88;1.77;;;;;;;11.95;85.17;101507.44;5061997;28;20391;-59
2022/09/17 09:22:46;;;;;;;4.38;1.40;;;;;;;11.89;86.59;101508.03;5078007;28;20060;-59
2022/09/17 09:25:28;;;;;;;7.70;1.80;;;;;;;11.83;86.36;101498.03;5081476;28;20463;-60
2022/09/17 09:28:13;;;;;;;10.77;2.00;;;;;;;11.87;87.89;101507.38;5072280;28;20125;-58
2022/09/17 09:31:08;;;;;;;7.72;1.90;;;;;;;11.94;88.15;101495.13;5053650;28;21083;-59
2022/09/17 09:33:40;;;;;;;8.68;2.10;;;;;;;12.05;88.16;101496.72;5076004;28;20042;-58
2022/09/17 09:36:07;;;;;;;9.10;1.88;;;;;;;12.18;87.66;101496.34;5071776;28;20056;-59
2022/09/17 09:38:42;;;;;;;14.55;2.10;;;;;;;12.36;86.80;101500.78;5076795;28;20028;-60
2022/09/17 09:41:16;;;;;;;9.88;1.60;;;;;;;12.44;86.65;101495.50;5062585;28;20039;-59
2022/09/17 09:43:47;;;;;;;9.13;1.70;;;;;;;12.55;84.78;101496.22;5077889;28;20082;-59
2022/09/17 09:46:23;;;;;;;7.32;1.80;;;;;;;12.61;82.78;101500.91;5081556;28;20043;-60
2022/09/17 09:49:24;;;;;;;5.35;1.60;;;;;;;12.62;82.69;101499.91;5071722;28;20032;-58
2022/09/17 09:52:18;;;;;;;7.35;1.85;;;;;;;12.59;83.56;101493.06;5062641;28;20037;-61
2022/09/17 09:55:08;;;;;;;8.73;1.70;;;;;;;12.50;81.77;101507.34;5035720;28;20036;-59
2022/09/17 09:57:43;;;;;;;6.80;1.65;;;;;;;12.28;83.83;101506.88;5087837;28;20027;-59
2022/09/17 10:00:24;;;;;;;8.10;1.58;;;;;;;12.18;86.48;101506.16;5064366;28;20069;-61
2022/09/17 10:02:56;;;;;;;6.00;1.77;;;;;;;12.05;85.07;101506.56;5064236;28;20040;-60
2022/09/17 10:05:22;;;;;;;7.28;1.48;;;;;;;12.13;83.95;101498.63;5070898;28;20040;-59
2022/09/17 10:07:48;;;;;;;7.00;1.55;;;;;;;12.21;84.52;101505.81;5084385;28;20123;-58
2022/09/17 10:10:13;;;;;;;2.55;1.30;;;;;;;12.32;84.06;101496.75;5067137;28;20436;-60
2022/09/17 10:12:38;;;;;;;4.05;1.30;;;;;;;12.34;84.63;101505.41;5066047;28;20637;-58
2022/09/17 10:15:26;;;;;;;5.88;1.45;;;;;;;12.38;81.67;101506.75;5070708;28;20078;-58
2022/09/17 10:18:14;;;;;;;5.80;1.40;;;;;;;12.34;84.45;101502.75;5070741;28;20436;-59
2022/09/17 10:21:22;;;;;;;5.22;1.27;;;;;;;12.41;81.46;101503.78;5063598;28;20492;-59
2022/09/17 10:23:49;;;;;;;6.55;1.40;;;;;;;12.43;78.24;101500.97;5052334;28;20055;-61
2022/09/17 10:26:33;;;;;;;4.03;1.40;;;;;;;12.59;79.55;101492.25;5065416;28;20514;-58
2022/09/17 10:29:02;;;;;;;7.00;1.70;;;;;;;12.84;83.12;101489.69;5068220;28;20119;-60
2022/09/17 10:31:48;;;;;;;5.93;1.40;;;;;;;13.01;82.67;101485.25;5071777;28;20472;-59
2022/09/17 10:34:21;;;;;;;4.70;1.30;;;;;;;13.04;78.30;101495.59;5073514;28;20111;-58
2022/09/17 10:36:47;;;;;;;13.02;3.40;;;;;;;12.94;81.89;101493.06;5080977;28;20023;-59
2022/09/17 10:39:31;;;;;;;7.60;1.73;;;;;;;12.84;83.27;101503.00;5063666;28;20075;-58
2022/09/17 10:42:05;;;;;;;7.28;1.48;;;;;;;12.51;82.97;101501.88;5067853;28;20028;-59
2022/09/17 10:44:33;;;;;;;7.97;1.50;;;;;;;12.24;82.45;101501.03;5061685;28;20132;-60
2022/09/17 10:47:05;;;;;;;6.97;1.42;;;;;;;12.31;87.73;101498.59;5067269;28;20037;-59
2022/09/17 10:49:43;;;;;;;5.53;1.35;;;;;;;12.31;87.89;101503.91;5064938;28;20116;-57
2022/09/17 10:52:16;;;;;;;4.70;1.45;;;;;;;12.23;84.47;101499.38;5073221;28;20387;-58
2022/09/17 10:55:00;;;;;;;3.65;1.48;;;;;;;12.24;85.49;101493.06;5065591;28;20024;-57
2022/09/17 10:57:45;;;;;;;5.50;1.45;;;;;;;12.29;87.51;101491.75;5075378;28;20028;-58
2022/09/17 11:00:17;;;;;;;4.90;1.30;;;;;;;12.43;88.15;101488.50;5070533;28;20040;-59
2022/09/17 11:03:08;;;;;;;6.25;1.33;;;;;;;12.53;84.23;101493.72;5069926;28;20016;-58
2022/09/17 11:06:06;;;;;;;4.35;1.25;;;;;;;12.72;86.96;101495.31;5062226;28;20060;-57
2022/09/17 11:08:39;;;;;;;2.35;1.00;;;;;;;12.76;85.54;101490.50;5069867;28;20027;-58
2022/09/17 11:11:23;;;;;;;2.95;1.10;;;;;;;12.74;85.19;101480.00;5073070;28;20048;-60
2022/09/17 11:14:13;;;;;;;3.42;1.10;;;;;;;12.71;84.14;101485.66;5078266;28;20695;-58
2022/09/17 11:17:26;;;;;;;3.45;1.00;;;;;;;12.68;83.19;101483.31;5067712;28;20031;-60
2022/09/17 11:20:04;;;;;;;4.07;1.10;;;;;;;12.88;83.88;101477.75;5073281;28;20036;-57
2022/09/17 11:23:03;;;;;;;4.07;1.05;;;;;;;13.03;84.52;101477.97;5065050;28;20114;-60
2022/09/17 11:25:53;;;;;;;4.45;1.25;;;;;;;13.15;80.87;101471.34;5072088;28;20028;-57
2022/09/17 11:28:52;;;;;;;5.47;1.30;;;;;;;13.31;82.56;101481.19;5068449;28;20036;-57
2022/09/17 11:31:46;;;;;;;3.25;1.10;;;;;;;13.42;83.15;101472.03;5064107;28;20036;-58
2022/09/17 11:34:29;;;;;;;;;;;;;;;13.50;82.48;101470.41;5067711;28;20040;-58
2022/09/17 11:37:10;;;;;;;5.35;1.50;;;;;;;13.56;83.94;101481.22;5074060;28;19916;-58
2022/09/17 11:39:53;;;;;;;5.60;1.30;;;;;;;13.53;83.82;101475.41;5062263;28;20032;-57
2022/09/17 11:42:27;;;;;;;4.55;1.27;;;;;;;13.43;81.24;101470.22;5067199;28;20046;-58